LYBE/BEG METAR and TAF weather

Enter ICAO airport designator
Station Type Date Time Source
LYBE METAR 2019/08/25 14:30 UTC NOAA

LYBE 251430Z 10009KT 070V130 CAVOK 31/16 Q1017 NOSIG


Station Type Date Time Source
LYBE Decoded METAR 2019/08/25 14:30 UTC NOAA

Station name not available
Aug 25, 2019 - 10:30 AM EDT / 2019.08.25 1430 UTC
Wind: from the E (100 degrees) at 10 MPH (9 KT) (direction variable):0
Visibility: greater than 7 mile(s):0
Temperature: 87 F (31 C)
Dew Point: 60 F (16 C)
Relative Humidity: 40%
Pressure (altimeter): 30.03 in. Hg (1017 hPa)
ob: LYBE 251430Z 10009KT 070V130 CAVOK 31/16 Q1017 NOSIG
cycle: 14

Station Type Date Time Source
LYBE TAF 2019/08/25 12:26 UTC NOAA

TAF LYBE 251100Z 2512/2612 11008KT 9999 SCT040 TX30/2513Z TN18/2604Z PROB40
TEMPO 2514/2519 VRB15KT 4000 TSRA SCT027CB SCT033

Example: see airport list